createdAt,value
2023-04-16T00:03:40.707Z,8.27
2023-04-16T00:08:43.603Z,8.34
2023-04-16T00:13:44.846Z,8.75
2023-04-16T00:18:46.670Z,9.18
2023-04-16T00:23:48.033Z,9.62
2023-04-16T00:28:49.926Z,9.83
2023-04-16T00:33:51.211Z,9.53
2023-04-16T00:38:52.515Z,9.14
2023-04-16T00:43:53.798Z,9.43
2023-04-16T00:48:55.087Z,9.65
2023-04-16T00:53:56.343Z,9.21
2023-04-16T00:58:57.607Z,8.90
2023-04-16T01:03:58.933Z,9.33
2023-04-16T01:09:00.647Z,9.42
2023-04-16T01:14:01.915Z,9.23
2023-04-16T01:19:03.521Z,8.93
2023-04-16T01:24:04.797Z,9.16
2023-04-16T01:29:06.481Z,9.00
2023-04-16T01:34:07.901Z,9.09
2023-04-16T01:39:11.566Z,9.08
2023-04-16T01:44:12.846Z,8.99
2023-04-16T01:49:14.307Z,9.24
2023-04-16T01:54:15.675Z,8.74
2023-04-16T01:59:16.901Z,8.65
2023-04-16T02:04:18.153Z,8.13
2023-04-16T02:09:19.377Z,8.62
2023-04-16T02:14:21.969Z,9.09
2023-04-16T02:19:23.204Z,9.17
2023-04-16T02:24:24.418Z,8.95
2023-04-16T02:29:25.670Z,9.35
2023-04-16T02:34:26.988Z,9.60
2023-04-16T02:39:28.297Z,9.51
2023-04-16T02:44:29.598Z,9.48
2023-04-16T02:49:31.076Z,9.79
2023-04-16T02:54:32.326Z,9.85
2023-04-16T02:59:33.635Z,9.96
2023-04-16T03:04:34.988Z,9.89
2023-04-16T03:09:36.556Z,9.81
2023-04-16T03:14:37.782Z,9.78
2023-04-16T03:19:39.005Z,9.63
2023-04-16T03:24:40.243Z,9.72
2023-04-16T03:29:41.551Z,9.67
2023-04-16T03:34:42.804Z,9.69
2023-04-16T03:39:44.065Z,9.75
2023-04-16T03:44:45.304Z,9.83
2023-04-16T03:49:46.572Z,9.64
2023-04-16T03:54:47.868Z,9.41
2023-04-16T03:59:49.069Z,9.41
2023-04-16T04:04:50.307Z,9.40
2023-04-16T04:09:51.587Z,9.59
2023-04-16T04:14:52.843Z,9.25
2023-04-16T04:20:01.326Z,9.53
2023-04-16T04:25:03.091Z,9.76
2023-04-16T04:30:07.472Z,9.81
2023-04-16T04:35:08.736Z,9.85
2023-04-16T04:40:10.081Z,9.99
2023-04-16T04:45:11.625Z,9.61
2023-04-16T04:50:12.922Z,9.77
2023-04-16T04:55:15.858Z,9.90
2023-04-16T05:00:17.081Z,9.98
2023-04-16T05:05:18.432Z,9.82
2023-04-16T05:10:19.683Z,9.91
2023-04-16T05:15:21.038Z,10.12
2023-04-16T05:20:22.827Z,10.27
2023-04-16T05:25:24.079Z,10.10
2023-04-16T05:30:25.525Z,10.20
2023-04-16T05:35:26.787Z,10.12
2023-04-16T05:40:28.007Z,10.19
2023-04-16T05:45:29.430Z,10.33
2023-04-16T05:50:30.786Z,10.22
2023-04-16T05:55:32.046Z,10.39
2023-04-16T06:00:33.300Z,10.62
2023-04-16T06:05:34.769Z,10.65
2023-04-16T06:10:36.011Z,11.04
2023-04-16T06:15:37.266Z,11.01
2023-04-16T06:20:38.544Z,10.94
2023-04-16T06:25:39.796Z,11.05
2023-04-16T06:30:42.805Z,10.93
2023-04-16T06:35:45.701Z,10.46
2023-04-16T06:40:46.973Z,10.42
2023-04-16T06:45:48.261Z,10.92
2023-04-16T06:50:49.518Z,11.29
2023-04-16T06:55:50.809Z,11.23
2023-04-16T07:00:52.213Z,11.45
2023-04-16T07:05:53.475Z,11.32
2023-04-16T07:10:54.821Z,11.10
2023-04-16T07:15:56.109Z,11.00
2023-04-16T07:20:57.352Z,11.25
2023-04-16T07:25:58.671Z,11.40
2023-04-16T07:30:59.952Z,11.76
2023-04-16T07:36:01.177Z,11.59
2023-04-16T07:41:02.377Z,11.64
2023-04-16T07:46:03.652Z,11.64
2023-04-16T07:51:04.875Z,11.80
2023-04-16T07:56:06.106Z,11.89
2023-04-16T08:01:07.379Z,11.90
2023-04-16T08:06:08.604Z,11.90
2023-04-16T08:11:10.125Z,11.80
2023-04-16T08:16:11.764Z,11.46
2023-04-16T08:21:13.030Z,10.89
2023-04-16T08:26:14.301Z,11.14
2023-04-16T08:31:15.868Z,10.92
2023-04-16T08:36:17.136Z,10.76
2023-04-16T08:41:18.410Z,11.02
2023-04-16T08:46:19.667Z,11.00
2023-04-16T08:51:21.025Z,11.41
2023-04-16T08:56:22.273Z,11.55
2023-04-16T09:01:23.604Z,11.85
2023-04-16T09:06:24.904Z,11.78
2023-04-16T09:11:26.325Z,11.89
2023-04-16T09:16:27.593Z,12.02
2023-04-16T09:21:28.886Z,11.82
2023-04-16T09:26:30.148Z,11.87
2023-04-16T09:31:31.778Z,12.17
2023-04-16T09:36:33.017Z,12.07
2023-04-16T09:41:36.252Z,12.49
2023-04-16T09:46:37.669Z,12.73
2023-04-16T09:51:39.114Z,13.30
2023-04-16T09:56:40.489Z,13.16
2023-04-16T10:01:41.899Z,13.43
2023-04-16T10:06:43.279Z,13.42
2023-04-16T10:11:44.572Z,13.77
2023-04-16T10:16:46.033Z,15.14
2023-04-16T10:21:47.263Z,14.55
2023-04-16T10:26:48.545Z,14.07
2023-04-16T10:31:49.773Z,13.25
2023-04-16T10:36:52.450Z,13.32
2023-04-16T10:41:53.703Z,13.35
2023-04-16T10:46:55.133Z,13.57
2023-04-16T10:51:56.674Z,13.65
2023-04-16T10:56:57.952Z,13.53
2023-04-16T11:01:59.225Z,13.85
2023-04-16T11:07:00.946Z,13.85
2023-04-16T11:12:02.178Z,13.78
2023-04-16T11:17:03.432Z,13.96
2023-04-16T11:22:04.673Z,13.89
2023-04-16T11:27:05.930Z,13.81
2023-04-16T11:32:07.150Z,14.07
2023-04-16T11:37:08.399Z,14.04
2023-04-16T11:42:09.660Z,13.63
2023-04-16T11:47:13.710Z,13.79
2023-04-16T11:52:15.283Z,14.20
2023-04-16T11:57:16.662Z,14.29
2023-04-16T12:02:17.977Z,14.09
2023-04-16T12:07:19.419Z,13.57
2023-04-16T12:12:21.100Z,13.58
2023-04-16T12:17:22.321Z,14.10
2023-04-16T12:22:23.618Z,13.92
2023-04-16T12:27:28.496Z,14.22
2023-04-16T12:32:31.997Z,14.02
2023-04-16T12:37:33.509Z,14.45
2023-04-16T12:42:37.847Z,14.46
2023-04-16T12:47:39.166Z,14.43
2023-04-16T12:52:40.466Z,14.65
2023-04-16T12:57:41.871Z,14.10
2023-04-16T13:02:43.293Z,14.63
2023-04-16T13:07:44.840Z,15.05
2023-04-16T13:12:46.554Z,14.75
2023-04-16T13:17:47.906Z,14.66
2023-04-16T13:22:49.188Z,14.60
2023-04-16T13:27:50.500Z,14.32
2023-04-16T13:32:51.804Z,14.08
2023-04-16T13:37:53.087Z,13.67
2023-04-16T13:42:54.303Z,14.48
2023-04-16T13:47:56.278Z,14.06
2023-04-16T13:52:57.615Z,13.43
2023-04-16T13:57:58.822Z,13.65
2023-04-16T14:03:00.649Z,13.37
2023-04-16T14:08:02.099Z,13.38
2023-04-16T14:13:03.362Z,13.38
2023-04-16T14:18:04.645Z,14.00
2023-04-16T14:23:05.969Z,14.52
2023-04-16T14:28:07.202Z,14.48
2023-04-16T14:33:08.457Z,14.60
2023-04-16T14:38:09.796Z,14.89
2023-04-16T14:43:11.298Z,15.31
2023-04-16T14:48:12.555Z,15.23
2023-04-16T14:53:13.835Z,14.20
2023-04-16T14:58:15.573Z,13.53
2023-04-16T15:03:17.087Z,12.81
2023-04-16T15:08:18.425Z,12.39
2023-04-16T15:13:19.755Z,12.02
2023-04-16T15:18:21.301Z,11.52
2023-04-16T15:23:22.642Z,11.26
2023-04-16T15:28:24.000Z,11.89
2023-04-16T15:33:26.332Z,11.97
2023-04-16T15:38:29.786Z,11.72
2023-04-16T15:43:31.204Z,12.00
2023-04-16T15:48:32.474Z,12.02
2023-04-16T15:53:33.699Z,11.92
2023-04-16T15:58:34.915Z,12.50
2023-04-16T16:03:36.479Z,12.15
2023-04-16T16:08:38.423Z,12.30
2023-04-16T16:13:39.809Z,12.07
2023-04-16T16:18:42.903Z,12.52
2023-04-16T16:23:44.149Z,12.20
2023-04-16T16:28:45.896Z,12.71
2023-04-16T16:33:47.347Z,13.62
2023-04-16T16:38:48.604Z,13.37
2023-04-16T16:43:51.310Z,12.77
2023-04-16T16:48:52.643Z,12.81
2023-04-16T16:53:53.908Z,13.98
2023-04-16T16:58:55.248Z,14.36
2023-04-16T17:03:57.117Z,14.35
2023-04-16T17:08:58.397Z,14.94
2023-04-16T17:13:59.692Z,14.86
2023-04-16T17:19:01.298Z,14.78
2023-04-16T17:24:02.558Z,14.57
2023-04-16T17:29:04.483Z,13.81
2023-04-16T17:34:06.281Z,14.10
2023-04-16T17:39:07.623Z,13.50
2023-04-16T17:44:11.144Z,13.45
2023-04-16T17:49:13.086Z,12.89
2023-04-16T17:54:14.424Z,12.76
2023-04-16T17:59:15.793Z,12.72
2023-04-16T18:04:17.518Z,12.81
2023-04-16T18:09:19.578Z,12.61
2023-04-16T18:14:21.480Z,12.30
2023-04-16T18:19:22.748Z,12.00
2023-04-16T18:24:23.978Z,11.76
2023-04-16T18:29:25.703Z,11.95
2023-04-16T18:34:29.590Z,12.07
2023-04-16T18:39:31.352Z,12.16
2023-04-16T18:44:32.596Z,12.27
2023-04-16T18:49:33.865Z,11.92
2023-04-16T18:54:36.547Z,11.64
2023-04-16T18:59:37.945Z,11.50
2023-04-16T19:04:39.222Z,11.73
2023-04-16T19:09:40.552Z,11.68
2023-04-16T19:14:41.873Z,11.68
2023-04-16T19:19:43.092Z,11.61
2023-04-16T19:24:44.338Z,11.14
2023-04-16T19:29:46.683Z,10.81
2023-04-16T19:34:47.897Z,10.46
2023-04-16T19:39:49.174Z,10.70
2023-04-16T19:44:50.497Z,10.83
2023-04-16T19:49:51.739Z,10.92
2023-04-16T19:54:53.128Z,11.08
2023-04-16T19:59:55.154Z,10.85
2023-04-16T20:04:56.460Z,10.16
2023-04-16T20:09:57.700Z,10.53
2023-04-16T20:14:58.988Z,10.79
2023-04-16T20:20:01.399Z,10.80
2023-04-16T20:25:03.480Z,11.10
2023-04-16T20:30:06.014Z,11.03
2023-04-16T20:35:10.590Z,10.89
2023-04-16T20:40:13.827Z,10.83
2023-04-16T20:45:15.569Z,10.96
2023-04-16T20:50:17.181Z,11.21
2023-04-16T20:55:18.459Z,10.86
2023-04-16T21:00:19.782Z,10.79
2023-04-16T21:05:21.437Z,10.70
2023-04-16T21:10:22.678Z,10.55
2023-04-16T21:15:23.983Z,10.74
2023-04-16T21:20:25.222Z,10.87
2023-04-16T21:25:26.500Z,10.95
2023-04-16T21:30:27.823Z,11.00
2023-04-16T21:35:29.104Z,10.47
2023-04-16T21:40:30.336Z,10.54
2023-04-16T21:45:31.733Z,10.69
2023-04-16T21:50:33.052Z,10.78
2023-04-16T21:55:34.886Z,10.58
2023-04-16T22:00:36.297Z,10.65
2023-04-16T22:05:37.636Z,10.87
2023-04-16T22:10:39.980Z,11.05
2023-04-16T22:15:41.332Z,11.19
2023-04-16T22:20:42.530Z,11.18
2023-04-16T22:25:43.820Z,11.13
2023-04-16T22:30:45.272Z,11.21
2023-04-16T22:35:46.527Z,11.08
2023-04-16T22:40:48.819Z,11.12
2023-04-16T22:45:50.101Z,10.96
2023-04-16T22:50:51.345Z,10.44
2023-04-16T22:55:52.626Z,10.14
2023-04-16T23:00:55.776Z,10.30
2023-04-16T23:05:57.055Z,10.31
2023-04-16T23:10:58.310Z,10.30
2023-04-16T23:15:59.615Z,10.24
2023-04-16T23:21:00.921Z,10.26
2023-04-16T23:26:02.846Z,10.20
2023-04-16T23:31:06.655Z,10.16
2023-04-16T23:36:08.582Z,10.05
2023-04-16T23:41:09.821Z,10.08
2023-04-16T23:46:11.365Z,10.02
2023-04-16T23:51:12.634Z,9.95
2023-04-16T23:56:15.426Z,9.65
